Upstream stations:
Downstream station:
SHEF ID: OSOK1 Oswego hwy 160
STATION TYPE:
PRECIP STAGE RIV-FLOW VOLTAGE BAT-LOAD
in ft cfs volt volt
Ccp-Rev Ccp-Rev Ccp-Rev Ccp-Rev Ccp-Rev
(US/Central)
04/02 00:00 0.00 17.23 9037 12.65 12.49
04/02 01:00 0.00 17.21 9009 12.65 12.49
04/02 02:00 0.00 17.17 8955 12.57 12.41
04/02 03:00 0.01 17.15 8927 12.57 12.41
04/02 04:00 0.02 17.13 8900 12.57 12.41
04/02 05:00 0.00 17.10 8859 12.57 12.41
04/02 06:00 0.00 17.07 8818 12.57 12.41
04/02 07:00 0.00 17.06 8805 12.57 12.41
04/02 08:00 0.00 17.01 8737 12.57 12.41
04/02 09:00 0.00 16.98 8696 12.97 12.81
04/02 10:00 0.00 16.95 8656 13.05 12.81
04/02 11:00 0.00 16.94 8642 13.37 13.13
04/02 12:00 0.00 16.91 8602 13.37 13.29
04/02 13:00 0.00 16.88 8561 13.37 13.13
04/02 14:00 0.00 16.84 8508 13.37 12.65
04/02 15:00 0.00 16.81 8467 13.37 12.65
04/02 16:00 0.00 16.79 8440 13.37 12.65
04/02 17:00 0.00 16.76 8400 13.44 12.65
04/02 18:00 0.00 16.75 8387 13.44 12.57
04/02 19:00 0.00 16.69 8307 12.65 12.57
04/02 20:00 0.00 16.67 8280 12.65 12.57
04/02 21:00 0.00 16.63 8227 12.65 12.49
04/02 22:00 0.00 16.59 8173 12.65 12.49
04/02 23:00 ---- ---- ---- ---- ----